sensor_id;sensor_type;location;lat;lon;timestamp;temperature;humidity
32215;DHT22;18708;53.124;23.190;2023-02-03T00:01:01;-0.60;99.90
32215;DHT22;18708;53.124;23.190;2023-02-03T00:03:27;-0.60;99.90
32215;DHT22;18708;53.124;23.190;2023-02-03T00:05:53;-0.70;99.90
32215;DHT22;18708;53.124;23.190;2023-02-03T00:08:19;-0.80;99.90
32215;DHT22;18708;53.124;23.190;2023-02-03T00:10:46;-0.80;99.90
32215;DHT22;18708;53.124;23.190;2023-02-03T00:13:11;-0.90;99.90
32215;DHT22;18708;53.124;23.190;2023-02-03T00:15:37;-0.80;99.90
32215;DHT22;18708;53.124;23.190;2023-02-03T00:18:03;-0.80;99.90
32215;DHT22;18708;53.124;23.190;2023-02-03T00:20:29;-0.90;99.90
32215;DHT22;18708;53.124;23.190;2023-02-03T00:23:02;-0.90;99.90
32215;DHT22;18708;53.124;23.190;2023-02-03T00:25:28;-0.90;99.90
32215;DHT22;18708;53.124;23.190;2023-02-03T00:27:54;-0.90;99.90
32215;DHT22;18708;53.124;23.190;2023-02-03T00:30:19;-0.80;99.90
32215;DHT22;18708;53.124;23.190;2023-02-03T00:32:45;-0.90;99.90
32215;DHT22;18708;53.124;23.190;2023-02-03T00:35:10;-1.00;99.90
32215;DHT22;18708;53.124;23.190;2023-02-03T00:37:36;-0.90;99.90
32215;DHT22;18708;53.124;23.190;2023-02-03T00:40:02;-1.00;99.90
32215;DHT22;18708;53.124;23.190;2023-02-03T00:42:27;-1.00;99.90
32215;DHT22;18708;53.124;23.190;2023-02-03T00:44:53;-1.00;99.90
32215;DHT22;18708;53.124;23.190;2023-02-03T00:47:18;-1.00;99.90
32215;DHT22;18708;53.124;23.190;2023-02-03T00:49:44;-1.00;99.90
32215;DHT22;18708;53.124;23.190;2023-02-03T00:52:10;-1.10;99.90
32215;DHT22;18708;53.124;23.190;2023-02-03T00:54:35;-1.10;99.90
32215;DHT22;18708;53.124;23.190;2023-02-03T00:57:01;-1.20;99.90
32215;DHT22;18708;53.124;23.190;2023-02-03T00:59:26;-1.10;99.90
32215;DHT22;18708;53.124;23.190;2023-02-03T01:01:52;-1.00;99.90
32215;DHT22;18708;53.124;23.190;2023-02-03T01:04:18;-1.10;99.90
32215;DHT22;18708;53.124;23.190;2023-02-03T01:06:43;-1.10;99.90
32215;DHT22;18708;53.124;23.190;2023-02-03T01:09:09;-1.10;99.90
32215;DHT22;18708;53.124;23.190;2023-02-03T01:11:35;-1.10;99.90
32215;DHT22;18708;53.124;23.190;2023-02-03T01:14:00;-1.20;99.90
32215;DHT22;18708;53.124;23.190;2023-02-03T01:16:28;-1.20;99.90
32215;DHT22;18708;53.124;23.190;2023-02-03T01:18:55;-1.20;99.90
32215;DHT22;18708;53.124;23.190;2023-02-03T01:21:23;-1.00;99.90
32215;DHT22;18708;53.124;23.190;2023-02-03T01:23:50;-1.00;99.90
32215;DHT22;18708;53.124;23.190;2023-02-03T01:26:18;-1.10;99.90
32215;DHT22;18708;53.124;23.190;2023-02-03T01:28:44;-1.20;99.90
32215;DHT22;18708;53.124;23.190;2023-02-03T01:31:18;-1.10;99.90
32215;DHT22;18708;53.124;23.190;2023-02-03T01:33:44;-1.10;99.90
32215;DHT22;18708;53.124;23.190;2023-02-03T01:36:17;-1.10;99.90
32215;DHT22;18708;53.124;23.190;2023-02-03T01:38:43;-1.00;99.90
32215;DHT22;18708;53.124;23.190;2023-02-03T01:41:30;-1.00;99.90
32215;DHT22;18708;53.124;23.190;2023-02-03T01:43:57;-1.00;99.90
32215;DHT22;18708;53.124;23.190;2023-02-03T01:46:30;-1.00;99.90
32215;DHT22;18708;53.124;23.190;2023-02-03T01:49:12;-0.90;99.90
32215;DHT22;18708;53.124;23.190;2023-02-03T01:51:41;-0.90;99.90
32215;DHT22;18708;53.124;23.190;2023-02-03T01:54:29;-0.90;99.90
32215;DHT22;18708;53.124;23.190;2023-02-03T01:57:03;-0.90;99.90
32215;DHT22;18708;53.124;23.190;2023-02-03T01:59:31;-0.90;99.90
32215;DHT22;18708;53.124;23.190;2023-02-03T02:01:58;-0.90;99.90
32215;DHT22;18708;53.124;23.190;2023-02-03T02:04:32;-0.90;99.90
32215;DHT22;18708;53.124;23.190;2023-02-03T02:06:58;-0.80;99.90
32215;DHT22;18708;53.124;23.190;2023-02-03T02:09:25;-0.80;99.90
32215;DHT22;18708;53.124;23.190;2023-02-03T02:11:51;-0.80;99.90
32215;DHT22;18708;53.124;23.190;2023-02-03T02:14:17;-0.70;99.90
32215;DHT22;18708;53.124;23.190;2023-02-03T02:16:55;-0.70;99.90
32215;DHT22;18708;53.124;23.190;2023-02-03T02:28:07;-0.70;99.90
32215;DHT22;18708;53.124;23.190;2023-02-03T02:31:00;-0.60;99.90
32215;DHT22;18708;53.124;23.190;2023-02-03T02:33:45;-0.70;99.90
32215;DHT22;18708;53.124;23.190;2023-02-03T02:36:33;-0.70;99.90
32215;DHT22;18708;53.124;23.190;2023-02-03T02:42:22;-0.60;99.90
32215;DHT22;18708;53.124;23.190;2023-02-03T02:44:55;-0.60;99.90
32215;DHT22;18708;53.124;23.190;2023-02-03T02:47:23;-0.60;99.90
32215;DHT22;18708;53.124;23.190;2023-02-03T02:49:57;-0.60;99.90
32215;DHT22;18708;53.124;23.190;2023-02-03T02:52:25;-0.60;99.90
32215;DHT22;18708;53.124;23.190;2023-02-03T02:54:55;-0.70;99.90
32215;DHT22;18708;53.124;23.190;2023-02-03T02:57:24;-0.70;99.90
32215;DHT22;18708;53.124;23.190;2023-02-03T02:59:50;-0.70;99.90
32215;DHT22;18708;53.124;23.190;2023-02-03T03:02:17;-0.60;99.90
32215;DHT22;18708;53.124;23.190;2023-02-03T03:04:45;-0.60;99.90
32215;DHT22;18708;53.124;23.190;2023-02-03T03:07:17;-0.60;99.90
32215;DHT22;18708;53.124;23.190;2023-02-03T03:09:50;-0.70;99.90
32215;DHT22;18708;53.124;23.190;2023-02-03T03:12:21;-0.70;99.90
32215;DHT22;18708;53.124;23.190;2023-02-03T03:14:52;-0.60;99.90
32215;DHT22;18708;53.124;23.190;2023-02-03T03:17:36;-0.70;99.90
32215;DHT22;18708;53.124;23.190;2023-02-03T03:20:08;-0.70;99.90
32215;DHT22;18708;53.124;23.190;2023-02-03T03:22:38;-0.60;99.90
32215;DHT22;18708;53.124;23.190;2023-02-03T03:25:13;-0.70;99.90
32215;DHT22;18708;53.124;23.190;2023-02-03T03:27:47;-0.60;99.90
32215;DHT22;18708;53.124;23.190;2023-02-03T03:30:15;-0.70;99.90
32215;DHT22;18708;53.124;23.190;2023-02-03T03:32:43;-0.60;99.90
32215;DHT22;18708;53.124;23.190;2023-02-03T03:35:09;-0.60;99.90
32215;DHT22;18708;53.124;23.190;2023-02-03T03:40:09;-0.60;99.90
32215;DHT22;18708;53.124;23.190;2023-02-03T03:42:43;-0.60;99.90
32215;DHT22;18708;53.124;23.190;2023-02-03T03:47:52;-0.50;99.90
32215;DHT22;18708;53.124;23.190;2023-02-03T03:50:25;-0.50;99.90
32215;DHT22;18708;53.124;23.190;2023-02-03T03:52:53;-0.50;99.90
32215;DHT22;18708;53.124;23.190;2023-02-03T03:55:20;-0.50;99.90
32215;DHT22;18708;53.124;23.190;2023-02-03T03:57:55;-0.50;99.90
32215;DHT22;18708;53.124;23.190;2023-02-03T04:00:26;-0.50;99.90
32215;DHT22;18708;53.124;23.190;2023-02-03T04:02:54;-0.40;99.90
32215;DHT22;18708;53.124;23.190;2023-02-03T04:05:22;-0.50;99.90
32215;DHT22;18708;53.124;23.190;2023-02-03T04:07:48;-0.40;99.90
32215;DHT22;18708;53.124;23.190;2023-02-03T04:10:22;-0.40;99.90
32215;DHT22;18708;53.124;23.190;2023-02-03T04:12:49;-0.50;99.90
32215;DHT22;18708;53.124;23.190;2023-02-03T04:15:15;-0.40;99.90
32215;DHT22;18708;53.124;23.190;2023-02-03T04:17:41;-0.40;99.90
32215;DHT22;18708;53.124;23.190;2023-02-03T04:20:07;-0.50;99.90
32215;DHT22;18708;53.124;23.190;2023-02-03T04:22:32;-0.40;99.90
32215;DHT22;18708;53.124;23.190;2023-02-03T04:24:58;-0.40;99.90
32215;DHT22;18708;53.124;23.190;2023-02-03T04:27:24;-0.40;99.90
32215;DHT22;18708;53.124;23.190;2023-02-03T04:29:50;-0.40;99.90
32215;DHT22;18708;53.124;23.190;2023-02-03T04:32:16;-0.40;99.90
32215;DHT22;18708;53.124;23.190;2023-02-03T04:34:42;-0.30;99.90
32215;DHT22;18708;53.124;23.190;2023-02-03T04:37:08;-0.30;99.90
32215;DHT22;18708;53.124;23.190;2023-02-03T04:39:33;-0.30;99.90
32215;DHT22;18708;53.124;23.190;2023-02-03T04:41:59;-0.30;99.90
32215;DHT22;18708;53.124;23.190;2023-02-03T04:44:24;-0.30;99.90
32215;DHT22;18708;53.124;23.190;2023-02-03T04:46:50;-0.30;99.90
32215;DHT22;18708;53.124;23.190;2023-02-03T04:49:16;-0.20;99.90
32215;DHT22;18708;53.124;23.190;2023-02-03T04:51:42;-0.30;99.90
32215;DHT22;18708;53.124;23.190;2023-02-03T04:54:09;-0.30;99.90
32215;DHT22;18708;53.124;23.190;2023-02-03T04:56:35;-0.30;99.90
32215;DHT22;18708;53.124;23.190;2023-02-03T04:59:01;-0.20;99.90
32215;DHT22;18708;53.124;23.190;2023-02-03T05:01:27;-0.20;99.90
32215;DHT22;18708;53.124;23.190;2023-02-03T05:03:53;-0.20;99.90
32215;DHT22;18708;53.124;23.190;2023-02-03T05:06:26;-0.30;99.90
32215;DHT22;18708;53.124;23.190;2023-02-03T05:08:53;-0.20;99.90
32215;DHT22;18708;53.124;23.190;2023-02-03T05:11:19;-0.20;99.90
32215;DHT22;18708;53.124;23.190;2023-02-03T05:13:45;-0.20;99.90
32215;DHT22;18708;53.124;23.190;2023-02-03T05:16:11;-0.20;99.90
32215;DHT22;18708;53.124;23.190;2023-02-03T05:18:36;-0.20;99.90
32215;DHT22;18708;53.124;23.190;2023-02-03T05:21:02;-0.20;99.90
32215;DHT22;18708;53.124;23.190;2023-02-03T05:23:28;-0.20;99.90
32215;DHT22;18708;53.124;23.190;2023-02-03T05:25:53;-0.20;99.90
32215;DHT22;18708;53.124;23.190;2023-02-03T05:28:19;-0.10;99.90
32215;DHT22;18708;53.124;23.190;2023-02-03T05:30:45;-0.20;99.90
32215;DHT22;18708;53.124;23.190;2023-02-03T05:33:10;-0.20;99.90
32215;DHT22;18708;53.124;23.190;2023-02-03T05:35:36;-0.10;99.90
32215;DHT22;18708;53.124;23.190;2023-02-03T05:38:02;-0.10;99.90
32215;DHT22;18708;53.124;23.190;2023-02-03T05:40:27;-0.10;99.90
32215;DHT22;18708;53.124;23.190;2023-02-03T05:43:12;-0.10;99.90
32215;DHT22;18708;53.124;23.190;2023-02-03T05:45:38;-0.10;99.90
32215;DHT22;18708;53.124;23.190;2023-02-03T05:48:04;-0.20;99.90
32215;DHT22;18708;53.124;23.190;2023-02-03T05:50:30;-0.20;99.90
32215;DHT22;18708;53.124;23.190;2023-02-03T05:52:59;-0.10;99.90
32215;DHT22;18708;53.124;23.190;2023-02-03T05:55:26;-0.10;99.90
32215;DHT22;18708;53.124;23.190;2023-02-03T05:57:52;-0.10;99.90
32215;DHT22;18708;53.124;23.190;2023-02-03T06:00:18;-0.10;99.90
32215;DHT22;18708;53.124;23.190;2023-02-03T06:02:58;-0.10;99.90
32215;DHT22;18708;53.124;23.190;2023-02-03T06:05:25;-0.20;99.90
32215;DHT22;18708;53.124;23.190;2023-02-03T06:07:51;-0.20;99.90
32215;DHT22;18708;53.124;23.190;2023-02-03T06:10:17;-0.10;99.90
32215;DHT22;18708;53.124;23.190;2023-02-03T06:12:43;-0.10;99.90
32215;DHT22;18708;53.124;23.190;2023-02-03T06:15:09;-0.20;99.90
32215;DHT22;18708;53.124;23.190;2023-02-03T06:17:35;-0.10;99.90
32215;DHT22;18708;53.124;23.190;2023-02-03T06:20:05;-0.20;99.90
32215;DHT22;18708;53.124;23.190;2023-02-03T06:22:31;-0.10;99.90
32215;DHT22;18708;53.124;23.190;2023-02-03T06:24:57;-0.10;99.90
32215;DHT22;18708;53.124;23.190;2023-02-03T06:27:22;-0.20;99.90
32215;DHT22;18708;53.124;23.190;2023-02-03T06:29:48;-0.20;99.90
32215;DHT22;18708;53.124;23.190;2023-02-03T06:32:14;-0.10;99.90
32215;DHT22;18708;53.124;23.190;2023-02-03T06:34:40;-0.10;99.90
32215;DHT22;18708;53.124;23.190;2023-02-03T06:37:05;-0.10;99.90
32215;DHT22;18708;53.124;23.190;2023-02-03T06:39:31;-0.20;99.90
32215;DHT22;18708;53.124;23.190;2023-02-03T06:41:56;-0.20;99.90
32215;DHT22;18708;53.124;23.190;2023-02-03T06:44:22;-0.20;99.90
32215;DHT22;18708;53.124;23.190;2023-02-03T06:46:48;-0.20;99.90
32215;DHT22;18708;53.124;23.190;2023-02-03T06:49:15;-0.30;99.90
32215;DHT22;18708;53.124;23.190;2023-02-03T06:51:42;-0.20;99.90
32215;DHT22;18708;53.124;23.190;2023-02-03T06:54:09;-0.10;99.90
32215;DHT22;18708;53.124;23.190;2023-02-03T06:56:34;-0.10;99.90
32215;DHT22;18708;53.124;23.190;2023-02-03T06:59:00;-0.10;99.90
32215;DHT22;18708;53.124;23.190;2023-02-03T07:01:26;0.00;99.90
32215;DHT22;18708;53.124;23.190;2023-02-03T07:03:51;-0.10;99.90
32215;DHT22;18708;53.124;23.190;2023-02-03T07:06:17;0.00;99.90
32215;DHT22;18708;53.124;23.190;2023-02-03T07:08:43;0.00;99.90
32215;DHT22;18708;53.124;23.190;2023-02-03T07:11:09;0.00;99.90
32215;DHT22;18708;53.124;23.190;2023-02-03T07:13:35;0.00;99.90
32215;DHT22;18708;53.124;23.190;2023-02-03T07:16:00;0.10;99.90
32215;DHT22;18708;53.124;23.190;2023-02-03T07:18:26;0.10;99.90
32215;DHT22;18708;53.124;23.190;2023-02-03T07:20:52;0.20;99.90
32215;DHT22;18708;53.124;23.190;2023-02-03T07:23:18;0.20;99.90
32215;DHT22;18708;53.124;23.190;2023-02-03T07:25:44;0.20;99.90
32215;DHT22;18708;53.124;23.190;2023-02-03T07:28:10;0.30;99.90
32215;DHT22;18708;53.124;23.190;2023-02-03T07:30:36;0.40;99.90
32215;DHT22;18708;53.124;23.190;2023-02-03T07:33:01;0.40;99.90
32215;DHT22;18708;53.124;23.190;2023-02-03T07:35:27;0.30;99.90
32215;DHT22;18708;53.124;23.190;2023-02-03T07:37:53;0.20;99.90
32215;DHT22;18708;53.124;23.190;2023-02-03T07:40:19;0.30;99.90
32215;DHT22;18708;53.124;23.190;2023-02-03T07:42:47;0.30;99.90
32215;DHT22;18708;53.124;23.190;2023-02-03T07:45:14;0.30;99.90
32215;DHT22;18708;53.124;23.190;2023-02-03T07:47:42;0.20;99.90
32215;DHT22;18708;53.124;23.190;2023-02-03T07:50:10;0.20;99.90
32215;DHT22;18708;53.124;23.190;2023-02-03T07:52:36;0.30;99.90
32215;DHT22;18708;53.124;23.190;2023-02-03T07:55:02;0.30;99.90
32215;DHT22;18708;53.124;23.190;2023-02-03T07:57:28;0.20;99.90
32215;DHT22;18708;53.124;23.190;2023-02-03T07:59:53;0.20;99.90
32215;DHT22;18708;53.124;23.190;2023-02-03T08:02:19;0.20;99.90
32215;DHT22;18708;53.124;23.190;2023-02-03T08:04:45;0.20;99.90
32215;DHT22;18708;53.124;23.190;2023-02-03T08:07:10;0.20;99.90
32215;DHT22;18708;53.124;23.190;2023-02-03T08:09:36;0.20;99.90
32215;DHT22;18708;53.124;23.190;2023-02-03T08:12:02;0.20;99.90
32215;DHT22;18708;53.124;23.190;2023-02-03T08:14:28;0.30;99.90
32215;DHT22;18708;53.124;23.190;2023-02-03T08:16:55;0.20;99.90
32215;DHT22;18708;53.124;23.190;2023-02-03T08:19:21;0.20;99.90
32215;DHT22;18708;53.124;23.190;2023-02-03T08:21:46;0.20;99.90
32215;DHT22;18708;53.124;23.190;2023-02-03T08:24:12;0.20;99.90
32215;DHT22;18708;53.124;23.190;2023-02-03T08:26:39;0.20;99.90
32215;DHT22;18708;53.124;23.190;2023-02-03T08:29:05;0.10;99.90
32215;DHT22;18708;53.124;23.190;2023-02-03T08:31:32;0.10;99.90
32215;DHT22;18708;53.124;23.190;2023-02-03T08:33:57;0.20;99.90
32215;DHT22;18708;53.124;23.190;2023-02-03T08:36:23;0.30;99.90
32215;DHT22;18708;53.124;23.190;2023-02-03T08:38:49;0.30;99.90
32215;DHT22;18708;53.124;23.190;2023-02-03T08:41:16;0.30;99.90
32215;DHT22;18708;53.124;23.190;2023-02-03T08:43:43;0.50;99.90
32215;DHT22;18708;53.124;23.190;2023-02-03T08:46:10;0.40;99.90
32215;DHT22;18708;53.124;23.190;2023-02-03T08:48:36;0.40;99.90
32215;DHT22;18708;53.124;23.190;2023-02-03T08:51:01;0.30;99.90
32215;DHT22;18708;53.124;23.190;2023-02-03T08:53:27;0.20;99.90
32215;DHT22;18708;53.124;23.190;2023-02-03T08:55:53;0.30;99.90
32215;DHT22;18708;53.124;23.190;2023-02-03T08:58:19;0.20;99.90
32215;DHT22;18708;53.124;23.190;2023-02-03T09:00:44;0.30;99.90
32215;DHT22;18708;53.124;23.190;2023-02-03T09:03:12;0.40;99.90
32215;DHT22;18708;53.124;23.190;2023-02-03T09:05:37;0.40;99.90
32215;DHT22;18708;53.124;23.190;2023-02-03T09:08:03;0.40;99.90
32215;DHT22;18708;53.124;23.190;2023-02-03T09:10:29;0.50;99.90
32215;DHT22;18708;53.124;23.190;2023-02-03T09:12:56;0.50;99.90
32215;DHT22;18708;53.124;23.190;2023-02-03T09:15:24;0.60;99.90
32215;DHT22;18708;53.124;23.190;2023-02-03T09:17:50;0.60;99.90
32215;DHT22;18708;53.124;23.190;2023-02-03T09:20:16;0.60;99.90
32215;DHT22;18708;53.124;23.190;2023-02-03T09:22:42;0.70;99.90
32215;DHT22;18708;53.124;23.190;2023-02-03T09:25:10;0.70;99.90
32215;DHT22;18708;53.124;23.190;2023-02-03T09:27:35;0.70;99.90
32215;DHT22;18708;53.124;23.190;2023-02-03T09:30:01;0.70;99.90
32215;DHT22;18708;53.124;23.190;2023-02-03T09:32:27;0.70;99.90
32215;DHT22;18708;53.124;23.190;2023-02-03T09:34:52;0.70;99.90
32215;DHT22;18708;53.124;23.190;2023-02-03T09:37:18;0.70;99.90
32215;DHT22;18708;53.124;23.190;2023-02-03T09:39:43;0.70;99.90
32215;DHT22;18708;53.124;23.190;2023-02-03T09:47:28;0.60;99.90
32215;DHT22;18708;53.124;23.190;2023-02-03T09:50:02;0.70;99.90
32215;DHT22;18708;53.124;23.190;2023-02-03T09:52:37;0.80;99.90
32215;DHT22;18708;53.124;23.190;2023-02-03T09:55:29;0.90;99.90
32215;DHT22;18708;53.124;23.190;2023-02-03T09:58:15;1.00;99.90
32215;DHT22;18708;53.124;23.190;2023-02-03T10:00:55;1.10;54.50
32215;DHT22;18708;53.124;23.190;2023-02-03T10:06:15;1.00;99.90
32215;DHT22;18708;53.124;23.190;2023-02-03T10:08:49;0.90;99.90
32215;DHT22;18708;53.124;23.190;2023-02-03T10:11:37;0.80;99.90
32215;DHT22;18708;53.124;23.190;2023-02-03T10:18:57;0.60;99.90
32215;DHT22;18708;53.124;23.190;2023-02-03T10:21:36;0.60;99.90
32215;DHT22;18708;53.124;23.190;2023-02-03T10:24:11;0.70;99.90
32215;DHT22;18708;53.124;23.190;2023-02-03T10:26:38;0.80;99.90
32215;DHT22;18708;53.124;23.190;2023-02-03T10:29:37;0.80;99.90
32215;DHT22;18708;53.124;23.190;2023-02-03T10:32:13;0.90;99.90
32215;DHT22;18708;53.124;23.190;2023-02-03T10:34:38;0.90;99.90
32215;DHT22;18708;53.124;23.190;2023-02-03T10:37:32;0.90;99.90
32215;DHT22;18708;53.124;23.190;2023-02-03T10:40:00;0.70;99.90
32215;DHT22;18708;53.124;23.190;2023-02-03T10:42:28;0.60;99.90
32215;DHT22;18708;53.124;23.190;2023-02-03T10:45:14;0.70;99.90
32215;DHT22;18708;53.124;23.190;2023-02-03T10:47:50;0.60;99.90
32215;DHT22;18708;53.124;23.190;2023-02-03T10:50:22;0.70;99.90
32215;DHT22;18708;53.124;23.190;2023-02-03T10:52:49;0.70;99.90
32215;DHT22;18708;53.124;23.190;2023-02-03T10:57:49;0.90;99.90
32215;DHT22;18708;53.124;23.190;2023-02-03T11:00:28;0.90;99.90
32215;DHT22;18708;53.124;23.190;2023-02-03T11:05:37;0.70;99.90
32215;DHT22;18708;53.124;23.190;2023-02-03T11:08:03;0.70;99.90
32215;DHT22;18708;53.124;23.190;2023-02-03T11:10:36;0.70;99.90
32215;DHT22;18708;53.124;23.190;2023-02-03T11:13:22;0.80;99.90
32215;DHT22;18708;53.124;23.190;2023-02-03T11:16:12;0.80;99.90
32215;DHT22;18708;53.124;23.190;2023-02-03T11:18:59;0.60;99.90
32215;DHT22;18708;53.124;23.190;2023-02-03T11:26:32;0.60;99.90
32215;DHT22;18708;53.124;23.190;2023-02-03T11:29:00;0.60;99.90
32215;DHT22;18708;53.124;23.190;2023-02-03T11:31:33;0.60;99.90
32215;DHT22;18708;53.124;23.190;2023-02-03T11:34:04;0.60;99.90
32215;DHT22;18708;53.124;23.190;2023-02-03T11:36:32;0.50;99.90
32215;DHT22;18708;53.124;23.190;2023-02-03T11:41:48;0.50;99.90
32215;DHT22;18708;53.124;23.190;2023-02-03T11:44:25;0.60;99.90
32215;DHT22;18708;53.124;23.190;2023-02-03T11:47:11;0.80;99.90
32215;DHT22;18708;53.124;23.190;2023-02-03T11:52:54;0.60;99.90
32215;DHT22;18708;53.124;23.190;2023-02-03T11:58:19;0.80;99.90
32215;DHT22;18708;53.124;23.190;2023-02-03T12:23:55;0.70;99.90
32215;DHT22;18708;53.124;23.190;2023-02-03T12:26:26;0.80;99.90
32215;DHT22;18708;53.124;23.190;2023-02-03T12:34:21;1.20;99.90
32215;DHT22;18708;53.124;23.190;2023-02-03T12:36:54;0.90;99.90
32215;DHT22;18708;53.124;23.190;2023-02-03T12:39:43;1.00;99.90
32215;DHT22;18708;53.124;23.190;2023-02-03T12:45:17;0.80;99.90
32215;DHT22;18708;53.124;23.190;2023-02-03T12:47:57;0.70;99.90
32215;DHT22;18708;53.124;23.190;2023-02-03T12:53:16;0.90;99.90
32215;DHT22;18708;53.124;23.190;2023-02-03T13:01:35;0.90;99.90
32215;DHT22;18708;53.124;23.190;2023-02-03T13:04:17;0.90;99.90
32215;DHT22;18708;53.124;23.190;2023-02-03T13:12:36;0.60;99.90
32215;DHT22;18708;53.124;23.190;2023-02-03T13:15:27;0.60;99.90
32215;DHT22;18708;53.124;23.190;2023-02-03T13:20:51;0.60;99.90
32215;DHT22;18708;53.124;23.190;2023-02-03T13:23:18;0.60;99.90
32215;DHT22;18708;53.124;23.190;2023-02-03T13:28:55;0.50;99.90
32215;DHT22;18708;53.124;23.190;2023-02-03T13:39:38;0.40;99.90
32215;DHT22;18708;53.124;23.190;2023-02-03T13:42:26;0.30;99.90
32215;DHT22;18708;53.124;23.190;2023-02-03T13:45:08;0.30;99.90
32215;DHT22;18708;53.124;23.190;2023-02-03T13:47:38;0.40;99.90
32215;DHT22;18708;53.124;23.190;2023-02-03T13:50:07;0.40;99.90
32215;DHT22;18708;53.124;23.190;2023-02-03T13:52:45;0.40;99.90
32215;DHT22;18708;53.124;23.190;2023-02-03T13:55:43;0.40;99.90
32215;DHT22;18708;53.124;23.190;2023-02-03T13:58:21;0.40;99.90
32215;DHT22;18708;53.124;23.190;2023-02-03T14:05:51;0.40;99.90
32215;DHT22;18708;53.124;23.190;2023-02-03T14:22:14;0.30;99.90
32215;DHT22;18708;53.124;23.190;2023-02-03T14:24:49;0.20;99.90
32215;DHT22;18708;53.124;23.190;2023-02-03T14:27:20;0.20;99.90
32215;DHT22;18708;53.124;23.190;2023-02-03T14:30:11;0.20;99.90
32215;DHT22;18708;53.124;23.190;2023-02-03T14:32:57;0.10;99.90
32215;DHT22;18708;53.124;23.190;2023-02-03T14:35:39;0.10;99.90
32215;DHT22;18708;53.124;23.190;2023-02-03T14:38:09;0.10;99.90
32215;DHT22;18708;53.124;23.190;2023-02-03T14:40:49;0.10;99.90
32215;DHT22;18708;53.124;23.190;2023-02-03T14:43:42;0.10;99.90
32215;DHT22;18708;53.124;23.190;2023-02-03T14:59:53;-0.10;99.90
32215;DHT22;18708;53.124;23.190;2023-02-03T15:02:23;-0.10;99.90
32215;DHT22;18708;53.124;23.190;2023-02-03T15:04:51;-0.10;99.90
32215;DHT22;18708;53.124;23.190;2023-02-03T15:07:38;-0.10;93.90
32215;DHT22;18708;53.124;23.190;2023-02-03T15:13:03;-0.20;81.90
32215;DHT22;18708;53.124;23.190;2023-02-03T15:15:31;-0.20;79.70
32215;DHT22;18708;53.124;23.190;2023-02-03T15:17:59;-0.20;58.90
32215;DHT22;18708;53.124;23.190;2023-02-03T15:20:51;-0.30;48.60
32215;DHT22;18708;53.124;23.190;2023-02-03T15:23:26;-0.20;55.00
32215;DHT22;18708;53.124;23.190;2023-02-03T15:25:58;-0.30;54.50
32215;DHT22;18708;53.124;23.190;2023-02-03T15:28:25;-0.30;52.40
32215;DHT22;18708;53.124;23.190;2023-02-03T15:31:18;-0.30;53.00
32215;DHT22;18708;53.124;23.190;2023-02-03T15:33:44;-0.40;53.10
32215;DHT22;18708;53.124;23.190;2023-02-03T15:36:24;-0.40;53.90
32215;DHT22;18708;53.124;23.190;2023-02-03T15:39:02;-0.40;52.20
32215;DHT22;18708;53.124;23.190;2023-02-03T15:41:31;-0.40;51.80
32215;DHT22;18708;53.124;23.190;2023-02-03T15:44:02;-0.40;53.10
32215;DHT22;18708;53.124;23.190;2023-02-03T15:46:35;-0.40;56.40
32215;DHT22;18708;53.124;23.190;2023-02-03T15:49:11;-0.50;62.10
32215;DHT22;18708;53.124;23.190;2023-02-03T15:51:45;-0.40;69.60
32215;DHT22;18708;53.124;23.190;2023-02-03T15:57:00;-0.50;73.60
32215;DHT22;18708;53.124;23.190;2023-02-03T15:59:42;-0.50;81.10
32215;DHT22;18708;53.124;23.190;2023-02-03T16:04:45;-0.50;90.00
32215;DHT22;18708;53.124;23.190;2023-02-03T16:07:20;-0.50;84.80
32215;DHT22;18708;53.124;23.190;2023-02-03T16:09:51;-0.50;85.10
32215;DHT22;18708;53.124;23.190;2023-02-03T16:12:26;-0.50;86.30
32215;DHT22;18708;53.124;23.190;2023-02-03T16:14:53;-0.50;86.60
32215;DHT22;18708;53.124;23.190;2023-02-03T16:22:40;-0.50;85.10
32215;DHT22;18708;53.124;23.190;2023-02-03T16:25:14;-0.50;84.60
32215;DHT22;18708;53.124;23.190;2023-02-03T16:27:44;-0.50;82.90
32215;DHT22;18708;53.124;23.190;2023-02-03T16:35:51;-0.50;91.50
32215;DHT22;18708;53.124;23.190;2023-02-03T16:38:35;-0.60;79.70
32215;DHT22;18708;53.124;23.190;2023-02-03T16:41:19;-0.60;77.40
32215;DHT22;18708;53.124;23.190;2023-02-03T16:44:04;-0.60;77.70
32215;DHT22;18708;53.124;23.190;2023-02-03T16:46:48;-0.60;75.20
32215;DHT22;18708;53.124;23.190;2023-02-03T16:49:32;-0.70;74.50
32215;DHT22;18708;53.124;23.190;2023-02-03T16:52:16;-0.70;69.50
32215;DHT22;18708;53.124;23.190;2023-02-03T16:54:41;-0.70;71.40
32215;DHT22;18708;53.124;23.190;2023-02-03T16:57:07;-0.80;72.90
32215;DHT22;18708;53.124;23.190;2023-02-03T16:59:33;-0.80;70.00
32215;DHT22;18708;53.124;23.190;2023-02-03T17:01:59;-0.80;55.50
32215;DHT22;18708;53.124;23.190;2023-02-03T17:04:25;-0.80;23.70
32215;DHT22;18708;53.124;23.190;2023-02-03T17:06:50;-0.80;1.00
32215;DHT22;18708;53.124;23.190;2023-02-03T17:09:17;-0.80;1.00
32215;DHT22;18708;53.124;23.190;2023-02-03T17:11:48;-0.90;1.00
32215;DHT22;18708;53.124;23.190;2023-02-03T17:14:13;-0.90;1.00
32215;DHT22;18708;53.124;23.190;2023-02-03T17:16:39;-0.90;1.00
32215;DHT22;18708;53.124;23.190;2023-02-03T17:19:08;-0.90;1.00
32215;DHT22;18708;53.124;23.190;2023-02-03T17:21:34;-0.90;1.00
32215;DHT22;18708;53.124;23.190;2023-02-03T17:24:00;-1.00;1.00
32215;DHT22;18708;53.124;23.190;2023-02-03T17:26:26;-1.00;1.00
32215;DHT22;18708;53.124;23.190;2023-02-03T17:28:52;-1.00;1.00
32215;DHT22;18708;53.124;23.190;2023-02-03T17:31:19;-1.00;1.00
32215;DHT22;18708;53.124;23.190;2023-02-03T17:33:45;-0.90;1.00
32215;DHT22;18708;53.124;23.190;2023-02-03T17:36:13;-1.00;1.00
32215;DHT22;18708;53.124;23.190;2023-02-03T17:38:42;-1.00;1.00
32215;DHT22;18708;53.124;23.190;2023-02-03T17:41:12;-1.00;1.00
32215;DHT22;18708;53.124;23.190;2023-02-03T17:43:39;-1.10;1.00
32215;DHT22;18708;53.124;23.190;2023-02-03T17:46:05;-1.10;1.00
32215;DHT22;18708;53.124;23.190;2023-02-03T17:48:31;-1.10;1.00
32215;DHT22;18708;53.124;23.190;2023-02-03T17:51:08;-1.10;1.00
32215;DHT22;18708;53.124;23.190;2023-02-03T17:53:34;-1.10;1.00
32215;DHT22;18708;53.124;23.190;2023-02-03T17:56:08;-1.10;1.00
32215;DHT22;18708;53.124;23.190;2023-02-03T17:58:35;-1.10;1.00
32215;DHT22;18708;53.124;23.190;2023-02-03T18:01:07;-1.10;1.00
32215;DHT22;18708;53.124;23.190;2023-02-03T18:03:33;-1.10;1.00
32215;DHT22;18708;53.124;23.190;2023-02-03T18:05:59;-1.10;1.00
32215;DHT22;18708;53.124;23.190;2023-02-03T18:08:27;-1.10;1.00
32215;DHT22;18708;53.124;23.190;2023-02-03T18:10:53;-1.10;1.00
32215;DHT22;18708;53.124;23.190;2023-02-03T18:13:19;-1.10;1.00
32215;DHT22;18708;53.124;23.190;2023-02-03T18:15:47;-1.10;1.00
32215;DHT22;18708;53.124;23.190;2023-02-03T18:18:13;-1.10;1.00
32215;DHT22;18708;53.124;23.190;2023-02-03T18:20:38;-1.00;1.00